Red Wing, Minnesota
Current Conditions -  °F | °C
As of 4:55 PM on Monday 20 Oct 2014 (Local Time) from KRGK Reporting Station
Clear Clear  
Wind Chill: 17°   Ceiling: Unl
Heat Index: 17°   Visibility: 10mi
Dew Point:   Wind: 7mph
Humidity: 42%   Direction: 350°N
Pressure: 29.97"   Gusts: NA
Location:  44.57°N, 92.53°W
Report Text: KRGK 202155Z AUTO 35006KT 10SM CLR 17/04 A2997 RMK AO2
Loading
Personal Weather Stations






























Interactive Weather Map New forecast layout! Learn more

10-Day Weather Forecast

Advertisements
Track Severe Weather on mobile